createdAt,value
2022-08-31T00:00:33.811Z,4.50
2022-08-31T00:01:33.818Z,4.40
2022-08-31T00:02:33.854Z,4.80
2022-08-31T00:03:33.774Z,4.90
2022-08-31T00:04:33.838Z,5.10
2022-08-31T00:05:33.752Z,5.00
2022-08-31T00:06:33.742Z,4.80
2022-08-31T00:07:33.753Z,6.00
2022-08-31T00:08:33.756Z,4.80
2022-08-31T00:09:33.706Z,4.70
2022-08-31T00:10:36.979Z,4.70
2022-08-31T00:11:33.709Z,4.50
2022-08-31T00:12:33.702Z,5.20
2022-08-31T00:13:33.673Z,4.60
2022-08-31T00:14:33.762Z,4.70
2022-08-31T00:15:33.687Z,4.50
2022-08-31T00:16:33.671Z,4.60
2022-08-31T00:17:33.634Z,4.60
2022-08-31T00:18:33.605Z,4.30
2022-08-31T00:19:33.593Z,4.10
2022-08-31T00:20:34.842Z,4.10
2022-08-31T00:21:33.596Z,4.00
2022-08-31T00:22:33.564Z,3.90
2022-08-31T00:23:33.551Z,4.10
2022-08-31T00:24:33.540Z,4.10
2022-08-31T00:25:33.572Z,3.60
2022-08-31T00:26:33.563Z,3.70
2022-08-31T00:27:33.509Z,4.10
2022-08-31T00:28:33.503Z,3.90
2022-08-31T00:29:33.609Z,3.70
2022-08-31T00:30:33.471Z,3.90
2022-08-31T00:31:33.536Z,4.10
2022-08-31T00:32:33.473Z,4.30
2022-08-31T00:33:33.434Z,4.50
2022-08-31T00:34:33.449Z,4.30
2022-08-31T00:35:34.189Z,4.40
2022-08-31T00:36:33.405Z,4.30
2022-08-31T00:37:33.528Z,4.60
2022-08-31T00:38:33.387Z,4.40
2022-08-31T00:39:33.375Z,4.60
2022-08-31T00:40:33.469Z,4.90
2022-08-31T00:41:35.728Z,4.60
2022-08-31T00:42:33.357Z,4.90
2022-08-31T00:43:33.328Z,4.60
2022-08-31T00:44:33.323Z,4.40
2022-08-31T00:45:33.341Z,4.40
2022-08-31T00:46:33.354Z,4.80
2022-08-31T00:47:33.278Z,5.00
2022-08-31T00:48:33.268Z,4.90
2022-08-31T00:49:33.257Z,5.00
2022-08-31T00:50:33.241Z,5.10
2022-08-31T00:51:33.235Z,5.10
2022-08-31T00:52:37.541Z,5.20
2022-08-31T00:53:33.212Z,5.30
2022-08-31T00:54:33.209Z,5.20
2022-08-31T00:55:33.212Z,5.60
2022-08-31T00:56:33.183Z,4.90
2022-08-31T00:57:34.552Z,5.00
2022-08-31T00:58:33.161Z,6.20
2022-08-31T00:59:33.142Z,0.50
2022-08-31T01:00:33.168Z,0.00
2022-08-31T01:01:33.237Z,0.10
2022-08-31T01:02:33.179Z,0.50
2022-08-31T01:03:35.615Z,1.10
2022-08-31T01:04:33.094Z,0.00
2022-08-31T01:05:33.084Z,0.00
2022-08-31T01:06:33.062Z,0.00
2022-08-31T01:07:33.055Z,4.80
2022-08-31T01:08:33.072Z,4.60
2022-08-31T01:09:33.034Z,4.40
2022-08-31T01:10:33.017Z,4.70
2022-08-31T01:11:33.010Z,4.40
2022-08-31T01:12:33.000Z,3.90
2022-08-31T01:13:38.984Z,3.70
2022-08-31T01:14:32.978Z,3.80
2022-08-31T01:15:32.962Z,3.50
2022-08-31T01:16:33.208Z,3.60
2022-08-31T01:17:32.962Z,3.70
2022-08-31T01:18:32.930Z,3.50
2022-08-31T01:19:32.918Z,3.40
2022-08-31T01:20:33.062Z,3.50
2022-08-31T01:21:32.899Z,3.50
2022-08-31T01:22:32.909Z,3.60
2022-08-31T01:23:32.873Z,3.60
2022-08-31T01:24:32.861Z,3.50
2022-08-31T01:25:33.874Z,3.40
2022-08-31T01:26:32.861Z,3.60
2022-08-31T01:27:32.829Z,3.80
2022-08-31T01:28:32.817Z,3.90
2022-08-31T01:29:32.826Z,3.90
2022-08-31T01:30:32.818Z,3.60
2022-08-31T01:31:32.872Z,3.30
2022-08-31T01:32:32.807Z,3.50
2022-08-31T01:33:32.792Z,3.70
2022-08-31T01:34:32.781Z,3.20
2022-08-31T01:35:32.739Z,4.30
2022-08-31T01:36:32.746Z,4.00
2022-08-31T01:37:32.730Z,4.50
2022-08-31T01:38:32.707Z,4.60
2022-08-31T01:39:32.772Z,4.30
2022-08-31T01:40:32.736Z,4.00
2022-08-31T01:41:32.669Z,4.10
2022-08-31T01:42:34.245Z,4.50
2022-08-31T01:43:32.659Z,4.50
2022-08-31T01:44:32.666Z,4.50
2022-08-31T01:45:32.630Z,4.40
2022-08-31T01:46:32.680Z,4.30
2022-08-31T01:47:32.609Z,5.50
2022-08-31T01:48:32.596Z,3.50
2022-08-31T01:49:32.760Z,4.80
2022-08-31T01:50:32.582Z,4.20
2022-08-31T01:51:32.565Z,4.20
2022-08-31T01:52:32.546Z,4.10
2022-08-31T01:53:32.541Z,3.80
2022-08-31T01:54:32.558Z,4.50
2022-08-31T01:55:32.532Z,3.70
2022-08-31T01:56:32.646Z,3.80
2022-08-31T01:57:33.398Z,4.10
2022-08-31T01:58:32.529Z,4.00
2022-08-31T01:59:34.596Z,4.30
2022-08-31T02:00:32.516Z,4.30
2022-08-31T02:01:33.472Z,4.30
2022-08-31T02:02:32.491Z,4.50
2022-08-31T02:03:32.426Z,4.60
2022-08-31T02:04:32.459Z,4.80
2022-08-31T02:05:32.408Z,4.30
2022-08-31T02:06:32.401Z,4.20
2022-08-31T02:07:32.408Z,4.40
2022-08-31T02:08:32.372Z,5.00
2022-08-31T02:09:32.386Z,5.00
2022-08-31T02:10:33.209Z,4.90
2022-08-31T02:11:32.417Z,5.00
2022-08-31T02:12:32.325Z,5.00
2022-08-31T02:13:32.481Z,4.70
2022-08-31T02:14:34.525Z,4.70
2022-08-31T02:15:32.296Z,4.60
2022-08-31T02:16:32.384Z,4.20
2022-08-31T02:17:32.273Z,4.60
2022-08-31T02:18:32.259Z,4.30
2022-08-31T02:19:32.292Z,4.50
2022-08-31T02:20:32.233Z,4.00
2022-08-31T02:21:32.226Z,3.80
2022-08-31T02:22:32.218Z,4.20
2022-08-31T02:23:32.201Z,4.00
2022-08-31T02:24:32.195Z,3.90
2022-08-31T02:25:32.195Z,3.90
2022-08-31T02:26:32.179Z,3.90
2022-08-31T02:27:32.157Z,3.80
2022-08-31T02:28:32.163Z,4.00
2022-08-31T02:29:32.135Z,3.80
2022-08-31T02:30:32.121Z,3.70
2022-08-31T02:31:32.226Z,4.10
2022-08-31T02:32:35.767Z,4.00
2022-08-31T02:33:32.089Z,3.70
2022-08-31T02:34:39.241Z,3.50
2022-08-31T02:35:32.070Z,3.50
2022-08-31T02:36:32.059Z,3.40
2022-08-31T02:37:32.045Z,4.10
2022-08-31T02:38:32.031Z,3.70
2022-08-31T02:39:32.035Z,3.40
2022-08-31T02:40:32.132Z,3.70
2022-08-31T02:41:32.060Z,3.50
2022-08-31T02:42:39.402Z,3.70
2022-08-31T02:43:32.981Z,3.70
2022-08-31T02:44:31.989Z,3.50
2022-08-31T02:45:32.130Z,3.50
2022-08-31T02:46:34.466Z,4.40
2022-08-31T02:47:31.932Z,4.10
2022-08-31T02:48:31.919Z,3.80
2022-08-31T02:49:31.909Z,3.70
2022-08-31T02:50:31.922Z,3.30
2022-08-31T02:51:31.885Z,3.80
2022-08-31T02:52:31.875Z,3.80
2022-08-31T02:53:31.864Z,3.50
2022-08-31T02:54:31.856Z,4.00
2022-08-31T02:55:31.860Z,4.00
2022-08-31T02:56:31.832Z,4.20
2022-08-31T02:57:31.819Z,4.70
2022-08-31T02:58:31.810Z,3.60
2022-08-31T02:59:31.796Z,3.30
2022-08-31T03:00:31.859Z,3.20
2022-08-31T03:01:31.903Z,3.60
2022-08-31T03:02:32.425Z,5.60
2022-08-31T03:03:31.745Z,4.10
2022-08-31T03:04:31.738Z,4.10
2022-08-31T03:05:31.749Z,4.30
2022-08-31T03:06:31.720Z,4.40
2022-08-31T03:07:31.713Z,4.60
2022-08-31T03:08:31.736Z,3.40
2022-08-31T03:09:31.684Z,4.10
2022-08-31T03:10:31.679Z,3.90
2022-08-31T03:11:31.659Z,3.80
2022-08-31T03:12:31.658Z,3.90
2022-08-31T03:13:31.973Z,3.40
2022-08-31T03:14:31.647Z,4.00
2022-08-31T03:15:31.663Z,4.50
2022-08-31T03:16:31.605Z,3.80
2022-08-31T03:17:31.745Z,4.20
2022-08-31T03:18:31.583Z,4.50
2022-08-31T03:19:32.468Z,4.00
2022-08-31T03:20:31.561Z,4.30
2022-08-31T03:21:31.551Z,3.90
2022-08-31T03:22:31.548Z,3.70
2022-08-31T03:23:31.638Z,3.20
2022-08-31T03:24:31.532Z,3.70
2022-08-31T03:25:31.506Z,3.70
2022-08-31T03:26:31.494Z,3.20
2022-08-31T03:27:31.487Z,3.80
2022-08-31T03:28:31.474Z,4.20
2022-08-31T03:29:31.490Z,3.80
2022-08-31T03:30:31.608Z,4.40
2022-08-31T03:31:31.514Z,4.80
2022-08-31T03:32:31.705Z,4.70
2022-08-31T03:33:31.423Z,4.00
2022-08-31T03:34:31.402Z,4.20
2022-08-31T03:35:31.437Z,4.50
2022-08-31T03:36:31.683Z,4.80
2022-08-31T03:37:31.372Z,4.90
2022-08-31T03:38:31.361Z,4.90
2022-08-31T03:39:31.367Z,4.80
2022-08-31T03:40:31.494Z,0.60
2022-08-31T03:41:31.332Z,0.30
2022-08-31T03:42:31.964Z,0.30
2022-08-31T03:43:31.305Z,0.30
2022-08-31T03:44:31.315Z,0.40
2022-08-31T03:45:31.280Z,0.30
2022-08-31T03:46:31.338Z,0.30
2022-08-31T03:47:31.271Z,0.40
2022-08-31T03:48:31.244Z,0.50
2022-08-31T03:49:31.453Z,0.60
2022-08-31T03:50:31.223Z,0.90
2022-08-31T03:51:31.212Z,1.20
2022-08-31T03:52:31.203Z,1.20
2022-08-31T03:53:31.248Z,1.60
2022-08-31T03:54:32.809Z,1.80
2022-08-31T03:55:31.177Z,1.80
2022-08-31T03:56:31.161Z,1.40
2022-08-31T03:57:31.148Z,0.00
2022-08-31T03:58:31.148Z,0.00
2022-08-31T03:59:36.350Z,0.00
2022-08-31T04:00:31.117Z,0.00
2022-08-31T04:01:31.195Z,0.00
2022-08-31T04:02:35.491Z,0.00
2022-08-31T04:03:35.024Z,0.70
2022-08-31T04:04:31.064Z,1.50
2022-08-31T04:05:31.057Z,1.50
2022-08-31T04:06:31.113Z,6.10
2022-08-31T04:07:31.140Z,9.70
2022-08-31T04:08:32.035Z,10.20
2022-08-31T04:09:31.029Z,10.50
2022-08-31T04:10:31.006Z,11.00
2022-08-31T04:11:45.437Z,11.00
2022-08-31T04:12:32.309Z,10.50
2022-08-31T04:13:30.992Z,9.00
2022-08-31T04:14:33.172Z,10.10
2022-08-31T04:15:31.073Z,9.00
2022-08-31T04:16:30.930Z,7.90
2022-08-31T04:17:30.927Z,9.80
2022-08-31T04:18:30.908Z,10.80
2022-08-31T04:19:31.609Z,10.90
2022-08-31T04:20:30.908Z,10.20
2022-08-31T04:21:30.885Z,9.40
2022-08-31T04:22:30.896Z,9.70
2022-08-31T04:23:30.883Z,9.10
2022-08-31T04:24:30.848Z,10.10
2022-08-31T04:25:30.832Z,10.50
2022-08-31T04:26:30.838Z,7.60
2022-08-31T04:27:30.877Z,8.80
2022-08-31T04:28:30.792Z,8.40
2022-08-31T04:29:30.816Z,9.80
2022-08-31T04:30:30.777Z,9.80
2022-08-31T04:31:30.854Z,8.10
2022-08-31T04:32:30.772Z,8.00
2022-08-31T04:33:40.282Z,9.60
2022-08-31T04:34:40.307Z,9.10
2022-08-31T04:35:30.720Z,9.20
2022-08-31T04:36:30.738Z,10.10
2022-08-31T04:37:30.698Z,11.40
2022-08-31T04:38:30.682Z,10.00
2022-08-31T04:39:32.293Z,10.50
2022-08-31T04:40:30.873Z,10.50
2022-08-31T04:41:30.675Z,10.90
2022-08-31T04:42:30.640Z,9.80
2022-08-31T04:43:30.640Z,8.00
2022-08-31T04:44:30.621Z,9.50
2022-08-31T04:45:30.667Z,9.10
2022-08-31T04:46:30.802Z,9.70
2022-08-31T04:47:30.636Z,10.40
2022-08-31T04:48:30.570Z,11.50
2022-08-31T04:49:30.573Z,10.30
2022-08-31T04:50:30.550Z,10.50
2022-08-31T04:51:30.569Z,10.80
2022-08-31T04:52:30.578Z,13.50
2022-08-31T04:53:30.548Z,9.70
2022-08-31T04:54:30.506Z,5.30
2022-08-31T04:55:30.601Z,4.90
2022-08-31T04:56:30.483Z,4.10
2022-08-31T04:57:30.842Z,4.50
2022-08-31T04:58:30.483Z,7.30
2022-08-31T04:59:30.455Z,7.40
2022-08-31T05:00:30.437Z,7.40
2022-08-31T05:01:36.059Z,2.20
2022-08-31T05:02:31.505Z,6.00
2022-08-31T05:03:30.415Z,10.10
2022-08-31T05:04:30.391Z,9.80
2022-08-31T05:05:30.397Z,10.10
2022-08-31T05:06:30.375Z,9.90
2022-08-31T05:07:30.389Z,8.80
2022-08-31T05:08:30.350Z,7.50
2022-08-31T05:09:30.349Z,7.50
2022-08-31T05:10:30.324Z,10.60
2022-08-31T05:11:30.318Z,9.60
2022-08-31T05:12:30.332Z,12.80
2022-08-31T05:13:30.292Z,14.00
2022-08-31T05:14:31.269Z,13.80
2022-08-31T05:15:30.489Z,15.80
2022-08-31T05:16:30.306Z,15.80
2022-08-31T05:17:30.248Z,14.60
2022-08-31T05:18:30.383Z,16.00
2022-08-31T05:19:30.236Z,17.20
2022-08-31T05:20:30.210Z,17.40
2022-08-31T05:21:30.203Z,15.70
2022-08-31T05:22:30.842Z,16.40
2022-08-31T05:23:30.204Z,13.00
2022-08-31T05:24:30.188Z,13.00
2022-08-31T05:25:30.156Z,15.00
2022-08-31T05:26:30.146Z,12.30
2022-08-31T05:27:30.136Z,12.70
2022-08-31T05:28:30.124Z,12.60
2022-08-31T05:29:30.165Z,14.00
2022-08-31T05:30:30.100Z,5.20
2022-08-31T05:31:30.488Z,0.80
2022-08-31T05:32:30.085Z,0.90
2022-08-31T05:33:30.088Z,4.10
2022-08-31T05:34:30.098Z,5.80
2022-08-31T05:35:30.822Z,7.50
2022-08-31T05:36:30.033Z,6.20
2022-08-31T05:37:30.049Z,6.30
2022-08-31T05:38:30.036Z,6.00
2022-08-31T05:39:30.004Z,6.60
2022-08-31T05:40:30.051Z,6.10
2022-08-31T05:41:29.982Z,6.30
2022-08-31T05:42:29.966Z,6.10
2022-08-31T05:43:29.955Z,6.10
2022-08-31T05:44:29.974Z,6.40
2022-08-31T05:45:29.937Z,6.30
2022-08-31T05:46:29.998Z,6.00
2022-08-31T05:47:29.933Z,6.70
2022-08-31T05:48:30.841Z,5.90
2022-08-31T05:49:29.891Z,6.10
2022-08-31T05:50:29.876Z,6.30
2022-08-31T05:51:29.876Z,6.40
2022-08-31T05:52:29.854Z,6.70
2022-08-31T05:53:29.863Z,6.80
2022-08-31T05:54:29.998Z,7.30
2022-08-31T05:55:29.827Z,7.50
2022-08-31T05:56:29.812Z,7.20
2022-08-31T05:57:29.880Z,7.60
2022-08-31T05:58:29.839Z,7.50
2022-08-31T05:59:29.787Z,7.40
2022-08-31T06:00:29.765Z,7.00
2022-08-31T06:01:29.785Z,7.20
2022-08-31T06:02:29.758Z,7.40
2022-08-31T06:03:29.732Z,7.50
2022-08-31T06:04:29.749Z,7.50
2022-08-31T06:05:29.766Z,7.30
2022-08-31T06:06:29.698Z,7.20
2022-08-31T06:07:29.950Z,7.40
2022-08-31T06:08:29.693Z,6.70
2022-08-31T06:09:29.687Z,6.80
2022-08-31T06:10:29.650Z,6.60
2022-08-31T06:11:29.692Z,6.60
2022-08-31T06:12:29.628Z,6.40
2022-08-31T06:13:30.031Z,6.70
2022-08-31T06:14:29.631Z,7.00
2022-08-31T06:15:29.597Z,7.10
2022-08-31T06:16:29.646Z,6.60
2022-08-31T06:17:29.580Z,7.20
2022-08-31T06:18:29.567Z,7.10
2022-08-31T06:19:29.570Z,7.60
2022-08-31T06:20:29.545Z,7.50
2022-08-31T06:21:29.529Z,7.40
2022-08-31T06:22:30.291Z,7.70
2022-08-31T06:23:29.510Z,7.10
2022-08-31T06:24:29.509Z,7.30
2022-08-31T06:25:29.484Z,7.50
2022-08-31T06:26:30.291Z,7.40
2022-08-31T06:27:29.468Z,8.00
2022-08-31T06:28:29.472Z,7.30
2022-08-31T06:29:29.467Z,7.10
2022-08-31T06:30:29.436Z,7.20
2022-08-31T06:31:29.555Z,6.80
2022-08-31T06:32:29.407Z,7.20
2022-08-31T06:33:29.412Z,6.70
2022-08-31T06:34:29.534Z,6.90
2022-08-31T06:35:29.387Z,7.60
2022-08-31T06:36:29.509Z,7.30
2022-08-31T06:37:29.353Z,7.40
2022-08-31T06:38:32.803Z,6.80
2022-08-31T06:39:30.384Z,7.20
2022-08-31T06:40:29.413Z,7.00
2022-08-31T06:41:32.175Z,7.00
2022-08-31T06:42:30.291Z,7.20
2022-08-31T06:43:29.332Z,7.30
2022-08-31T06:44:29.269Z,7.50
2022-08-31T06:45:29.507Z,7.60
2022-08-31T06:46:29.304Z,6.90
2022-08-31T06:47:29.244Z,7.10
2022-08-31T06:48:29.420Z,7.50
2022-08-31T06:49:29.228Z,7.30
2022-08-31T06:50:29.215Z,7.40
2022-08-31T06:51:29.206Z,7.30
2022-08-31T06:52:29.251Z,7.40
2022-08-31T06:53:29.199Z,6.90
2022-08-31T06:54:30.479Z,7.40
2022-08-31T06:55:29.174Z,7.10
2022-08-31T06:56:29.145Z,6.90
2022-08-31T06:57:29.128Z,7.20
2022-08-31T06:58:29.861Z,7.50
2022-08-31T06:59:29.958Z,7.10
2022-08-31T07:00:29.113Z,7.00
2022-08-31T07:01:35.636Z,7.20
2022-08-31T07:02:30.150Z,7.30
2022-08-31T07:03:29.087Z,7.20
2022-08-31T07:04:29.389Z,7.50
2022-08-31T07:05:29.076Z,7.60
2022-08-31T07:06:29.058Z,6.90
2022-08-31T07:07:29.992Z,7.60
2022-08-31T07:08:29.032Z,7.20
2022-08-31T07:09:29.016Z,7.70
2022-08-31T07:10:29.009Z,7.90
2022-08-31T07:11:28.994Z,7.80
2022-08-31T07:12:28.993Z,7.70
2022-08-31T07:13:29.403Z,6.90
2022-08-31T07:14:28.962Z,7.70
2022-08-31T07:15:29.147Z,7.60
2022-08-31T07:16:29.036Z,7.20
2022-08-31T07:17:28.935Z,7.40
2022-08-31T07:18:28.932Z,7.40
2022-08-31T07:19:28.945Z,7.30
2022-08-31T07:20:28.897Z,8.10
2022-08-31T07:21:28.982Z,7.40
2022-08-31T07:22:28.878Z,7.60
2022-08-31T07:23:28.868Z,7.70
2022-08-31T07:24:28.854Z,7.80
2022-08-31T07:25:28.844Z,7.60
2022-08-31T07:26:29.653Z,7.80
2022-08-31T07:27:28.830Z,7.50
2022-08-31T07:28:28.820Z,7.60
2022-08-31T07:29:28.801Z,7.80
2022-08-31T07:30:29.015Z,7.70
2022-08-31T07:31:28.803Z,7.80
2022-08-31T07:32:28.819Z,7.90
2022-08-31T07:33:28.767Z,7.70
2022-08-31T07:34:28.772Z,8.40
2022-08-31T07:35:28.736Z,8.40
2022-08-31T07:36:29.065Z,6.80
2022-08-31T07:37:28.739Z,7.50
2022-08-31T07:38:28.711Z,7.60
2022-08-31T07:39:28.704Z,7.00
2022-08-31T07:40:28.796Z,6.70
2022-08-31T07:41:28.701Z,7.30
2022-08-31T07:42:28.673Z,6.90
2022-08-31T07:43:28.715Z,7.10
2022-08-31T07:44:28.645Z,7.40
2022-08-31T07:45:29.229Z,7.10
2022-08-31T07:46:28.718Z,7.50
2022-08-31T07:47:29.386Z,7.90
2022-08-31T07:48:28.601Z,7.00
2022-08-31T07:49:28.591Z,7.10
2022-08-31T07:50:28.574Z,7.00
2022-08-31T07:51:28.633Z,7.80
2022-08-31T07:52:28.559Z,9.20
2022-08-31T07:53:28.565Z,11.10
2022-08-31T07:54:28.546Z,7.10
2022-08-31T07:55:28.553Z,10.10
2022-08-31T07:56:30.855Z,7.40
2022-08-31T07:57:28.533Z,7.40
2022-08-31T07:58:28.498Z,7.00
2022-08-31T07:59:28.492Z,7.30
2022-08-31T08:00:28.507Z,7.30
2022-08-31T08:01:28.491Z,7.60
2022-08-31T08:02:28.808Z,7.30
2022-08-31T08:03:28.450Z,7.10
2022-08-31T08:04:28.439Z,6.90
2022-08-31T08:05:29.047Z,6.90
2022-08-31T08:06:28.571Z,5.70
2022-08-31T08:07:28.407Z,5.90
2022-08-31T08:08:28.391Z,5.90
2022-08-31T08:09:28.412Z,6.70
2022-08-31T08:10:28.433Z,6.70
2022-08-31T08:11:28.363Z,6.80
2022-08-31T08:12:28.350Z,6.30
2022-08-31T08:13:32.502Z,6.00
2022-08-31T08:14:30.207Z,6.70
2022-08-31T08:15:28.393Z,7.50
2022-08-31T08:16:28.368Z,7.20
2022-08-31T08:17:28.417Z,8.10
2022-08-31T08:18:28.289Z,7.00
2022-08-31T08:19:28.469Z,9.00
2022-08-31T08:20:34.646Z,6.70
2022-08-31T08:21:29.903Z,6.90
2022-08-31T08:22:50.926Z,10.50
2022-08-31T08:23:29.356Z,7.70
2022-08-31T08:24:28.225Z,7.50
2022-08-31T08:25:28.902Z,9.20
2022-08-31T08:26:28.231Z,8.30
2022-08-31T08:27:28.226Z,7.40
2022-08-31T08:28:39.205Z,7.30
2022-08-31T08:29:29.903Z,8.00
2022-08-31T08:30:28.166Z,1.50
2022-08-31T08:31:28.222Z,2.70
2022-08-31T08:32:28.145Z,1.00
2022-08-31T08:33:28.135Z,1.10
2022-08-31T08:34:32.187Z,1.10
2022-08-31T08:35:28.113Z,6.80
2022-08-31T08:36:28.336Z,7.20
2022-08-31T08:37:54.197Z,1.60
2022-08-31T08:38:29.106Z,6.40
2022-08-31T08:39:28.088Z,2.30
2022-08-31T08:40:28.211Z,3.80
2022-08-31T08:41:28.033Z,4.80
2022-08-31T08:42:28.024Z,1.10
2022-08-31T08:43:30.902Z,1.20
2022-08-31T08:44:28.018Z,0.90
2022-08-31T08:45:28.071Z,1.00
2022-08-31T08:47:38.468Z,1.40
2022-08-31T08:47:38.610Z,0.40
2022-08-31T08:48:28.965Z,1.00
2022-08-31T08:49:27.976Z,0.80
2022-08-31T08:50:27.953Z,1.10
2022-08-31T08:51:27.931Z,2.60
2022-08-31T08:52:27.924Z,2.00
2022-08-31T08:53:28.895Z,2.10
2022-08-31T08:54:27.907Z,3.00
2022-08-31T08:55:29.111Z,3.80
2022-08-31T08:56:33.690Z,2.30
2022-08-31T08:57:28.924Z,2.10
2022-08-31T08:58:27.861Z,2.50
2022-08-31T08:59:27.858Z,2.50
2022-08-31T09:00:27.871Z,2.50
2022-08-31T09:01:27.874Z,3.00
2022-08-31T09:02:27.855Z,2.30
2022-08-31T09:03:27.814Z,1.40
2022-08-31T09:04:27.804Z,0.80
2022-08-31T09:05:36.638Z,0.90
2022-08-31T09:06:31.693Z,0.90
2022-08-31T09:07:28.770Z,0.40
2022-08-31T09:08:27.822Z,0.50
2022-08-31T09:09:27.749Z,1.00
2022-08-31T09:10:27.769Z,0.90
2022-08-31T09:11:27.737Z,1.00
2022-08-31T09:12:27.755Z,0.90
2022-08-31T09:13:27.713Z,0.70
2022-08-31T09:14:27.960Z,0.60
2022-08-31T09:15:27.715Z,0.50
2022-08-31T09:16:27.786Z,0.70
2022-08-31T09:17:27.679Z,0.50
2022-08-31T09:18:27.679Z,0.80
2022-08-31T09:19:27.653Z,1.20
2022-08-31T09:20:29.579Z,1.20
2022-08-31T09:21:27.640Z,1.50
2022-08-31T09:22:27.627Z,1.30
2022-08-31T09:23:27.737Z,1.30
2022-08-31T09:24:27.630Z,1.70
2022-08-31T09:25:29.701Z,1.30
2022-08-31T09:26:27.647Z,1.30
2022-08-31T09:27:27.631Z,0.90
2022-08-31T09:28:27.570Z,1.70
2022-08-31T09:29:27.627Z,2.30
2022-08-31T09:30:27.634Z,1.40
2022-08-31T09:31:27.576Z,1.50
2022-08-31T09:32:27.528Z,1.90
2022-08-31T09:33:27.512Z,2.00
2022-08-31T09:34:27.500Z,2.00
2022-08-31T09:35:27.516Z,1.90
2022-08-31T09:36:27.502Z,6.70
2022-08-31T09:37:27.474Z,9.50
2022-08-31T09:38:27.458Z,6.10
2022-08-31T09:39:28.619Z,3.90
2022-08-31T09:40:27.600Z,3.40
2022-08-31T09:41:27.429Z,3.90
2022-08-31T09:42:27.419Z,2.70
2022-08-31T09:43:27.425Z,2.30
2022-08-31T09:44:27.400Z,2.90
2022-08-31T09:45:27.399Z,3.60
2022-08-31T09:46:28.391Z,3.30
2022-08-31T09:47:27.364Z,3.10
2022-08-31T09:48:27.377Z,3.20
2022-08-31T09:49:27.364Z,7.10
2022-08-31T09:50:27.342Z,8.60
2022-08-31T09:51:27.329Z,7.70
2022-08-31T09:52:27.316Z,7.80
2022-08-31T09:53:27.345Z,7.30
2022-08-31T09:54:27.301Z,7.50
2022-08-31T09:55:27.311Z,8.60
2022-08-31T09:56:27.271Z,7.10
2022-08-31T09:57:27.446Z,7.50
2022-08-31T09:58:27.275Z,7.90
2022-08-31T09:59:27.269Z,7.70
2022-08-31T10:00:27.272Z,6.30
2022-08-31T10:01:27.313Z,6.80
2022-08-31T10:02:27.213Z,7.20
2022-08-31T10:03:27.461Z,7.20
2022-08-31T10:04:27.211Z,7.90
2022-08-31T10:05:27.211Z,8.10
2022-08-31T10:06:27.206Z,7.70
2022-08-31T10:07:27.158Z,7.70
2022-08-31T10:08:27.384Z,6.70
2022-08-31T10:09:27.137Z,7.50
2022-08-31T10:10:31.204Z,8.80
2022-08-31T10:11:27.114Z,7.50
2022-08-31T10:12:27.104Z,7.60
2022-08-31T10:13:27.094Z,6.80
2022-08-31T10:14:27.931Z,6.10
2022-08-31T10:15:27.069Z,6.50
2022-08-31T10:16:27.172Z,6.30
2022-08-31T10:17:32.120Z,7.30
2022-08-31T10:18:28.067Z,7.10
2022-08-31T10:19:27.063Z,7.00
2022-08-31T10:20:30.429Z,6.70
2022-08-31T10:21:27.011Z,6.10
2022-08-31T10:22:27.046Z,6.50
2022-08-31T10:23:27.002Z,6.50
2022-08-31T10:24:27.005Z,5.50
2022-08-31T10:25:26.976Z,5.90
2022-08-31T10:26:26.956Z,5.30
2022-08-31T10:27:26.947Z,5.10
2022-08-31T10:28:26.968Z,5.10
2022-08-31T10:29:26.944Z,6.30
2022-08-31T10:30:26.932Z,6.40
2022-08-31T10:31:26.990Z,6.00
2022-08-31T10:32:26.898Z,6.10
2022-08-31T10:33:26.977Z,5.90
2022-08-31T10:34:26.876Z,5.80
2022-08-31T10:35:26.882Z,6.30
2022-08-31T10:36:26.863Z,6.10
2022-08-31T10:37:26.845Z,5.40
2022-08-31T10:38:26.836Z,6.70
2022-08-31T10:39:29.576Z,5.40
2022-08-31T10:40:26.838Z,6.20
2022-08-31T10:41:26.796Z,7.40
2022-08-31T10:42:26.789Z,6.70
2022-08-31T10:43:26.781Z,6.70
2022-08-31T10:44:26.801Z,6.50
2022-08-31T10:45:26.788Z,6.60
2022-08-31T10:46:26.819Z,6.20
2022-08-31T10:47:33.901Z,6.80
2022-08-31T10:48:27.752Z,6.90
2022-08-31T10:49:26.716Z,6.50
2022-08-31T10:50:26.704Z,7.00
2022-08-31T10:51:26.688Z,7.20
2022-08-31T10:52:26.826Z,6.60
2022-08-31T10:53:26.671Z,7.30
2022-08-31T10:54:26.685Z,7.20
2022-08-31T10:55:26.651Z,7.50
2022-08-31T10:56:26.656Z,7.20
2022-08-31T10:57:31.438Z,8.10
2022-08-31T10:58:27.620Z,8.80
2022-08-31T10:59:26.635Z,7.50
2022-08-31T11:00:26.599Z,7.50
2022-08-31T11:01:26.673Z,6.90
2022-08-31T11:02:26.575Z,7.60
2022-08-31T11:03:26.625Z,7.40
2022-08-31T11:04:27.380Z,7.10
2022-08-31T11:05:26.608Z,7.40
2022-08-31T11:06:26.539Z,7.10
2022-08-31T11:07:26.526Z,7.00
2022-08-31T11:08:26.535Z,6.60
2022-08-31T11:09:26.505Z,6.80
2022-08-31T11:10:26.513Z,7.10
2022-08-31T11:11:26.716Z,7.50
2022-08-31T11:12:26.478Z,7.30
2022-08-31T11:13:26.477Z,6.80
2022-08-31T11:14:26.449Z,7.80
2022-08-31T11:15:28.296Z,10.20
2022-08-31T11:16:26.469Z,7.70
2022-08-31T11:17:26.437Z,8.50
2022-08-31T11:18:26.405Z,11.10
2022-08-31T11:19:26.394Z,7.70
2022-08-31T11:20:26.386Z,10.20
2022-08-31T11:21:26.369Z,11.40
2022-08-31T11:22:26.380Z,10.10
2022-08-31T11:23:26.366Z,7.20
2022-08-31T11:24:26.357Z,7.00
2022-08-31T11:25:26.327Z,7.40
2022-08-31T11:26:26.318Z,7.60
2022-08-31T11:27:27.632Z,7.50
2022-08-31T11:28:26.481Z,8.40
2022-08-31T11:29:26.282Z,7.40
2022-08-31T11:30:26.292Z,7.00
2022-08-31T11:31:26.288Z,7.30
2022-08-31T11:32:27.710Z,7.10
2022-08-31T11:33:26.242Z,6.70
2022-08-31T11:34:26.573Z,6.90
2022-08-31T11:35:26.218Z,7.20
2022-08-31T11:36:26.207Z,6.90
2022-08-31T11:37:26.214Z,6.80
2022-08-31T11:38:26.207Z,6.70
2022-08-31T11:39:26.181Z,7.20
2022-08-31T11:40:26.214Z,7.00
2022-08-31T11:41:26.178Z,6.70
2022-08-31T11:42:26.143Z,6.70
2022-08-31T11:43:26.136Z,7.20
2022-08-31T11:44:26.126Z,7.20
2022-08-31T11:45:27.120Z,7.20
2022-08-31T11:46:26.483Z,6.90
2022-08-31T11:47:26.092Z,7.10
2022-08-31T11:48:26.095Z,7.50
2022-08-31T11:49:26.131Z,6.60
2022-08-31T11:50:26.057Z,6.90
2022-08-31T11:51:26.930Z,7.00
2022-08-31T11:52:26.059Z,6.80
2022-08-31T11:53:26.037Z,6.60
2022-08-31T11:54:26.020Z,6.90
2022-08-31T11:55:26.018Z,7.20
2022-08-31T11:56:25.995Z,6.40
2022-08-31T11:57:26.008Z,7.20
2022-08-31T11:58:26.066Z,6.60
2022-08-31T11:59:25.969Z,6.30
2022-08-31T12:00:25.991Z,5.80
2022-08-31T12:01:25.951Z,6.40
2022-08-31T12:02:26.176Z,6.50
2022-08-31T12:03:25.928Z,6.60
2022-08-31T12:04:25.912Z,7.00
2022-08-31T12:05:25.948Z,6.50
2022-08-31T12:06:25.903Z,6.00
2022-08-31T12:07:25.906Z,6.80
2022-08-31T12:08:26.061Z,6.70
2022-08-31T12:09:25.870Z,6.80
2022-08-31T12:10:27.486Z,7.00
2022-08-31T12:11:25.857Z,6.50
2022-08-31T12:12:25.827Z,6.50
2022-08-31T12:13:25.842Z,6.30
2022-08-31T12:14:25.806Z,6.60
2022-08-31T12:15:25.810Z,6.80
2022-08-31T12:16:25.827Z,6.60
2022-08-31T12:17:25.793Z,7.00
2022-08-31T12:18:25.761Z,7.50
2022-08-31T12:19:25.846Z,6.90
2022-08-31T12:20:25.755Z,7.10
2022-08-31T12:21:25.750Z,7.20
2022-08-31T12:22:25.722Z,5.90
2022-08-31T12:23:30.988Z,6.60
2022-08-31T12:24:26.696Z,9.60
2022-08-31T12:25:28.989Z,6.70
2022-08-31T12:26:25.681Z,6.10
2022-08-31T12:27:25.665Z,6.70
2022-08-31T12:28:27.447Z,5.20
2022-08-31T12:29:25.647Z,6.10
2022-08-31T12:30:25.660Z,8.30
2022-08-31T12:31:25.703Z,7.50
2022-08-31T12:32:25.613Z,8.10
2022-08-31T12:33:25.603Z,7.40
2022-08-31T12:34:25.590Z,7.80
2022-08-31T12:35:25.580Z,7.60
2022-08-31T12:36:26.490Z,7.70
2022-08-31T12:37:25.557Z,8.30
2022-08-31T12:38:25.551Z,7.60
2022-08-31T12:39:25.541Z,7.20
2022-08-31T12:40:25.618Z,8.00
2022-08-31T12:41:25.620Z,9.00
2022-08-31T12:42:25.859Z,11.60
2022-08-31T12:43:25.496Z,9.00
2022-08-31T12:44:25.499Z,11.50
2022-08-31T12:45:25.477Z,8.70
2022-08-31T12:46:25.539Z,11.10
2022-08-31T12:47:25.471Z,10.70
2022-08-31T12:48:25.444Z,7.90
2022-08-31T12:49:25.443Z,6.70
2022-08-31T12:50:25.418Z,6.60
2022-08-31T12:51:25.430Z,7.00
2022-08-31T12:52:25.398Z,12.10
2022-08-31T12:53:25.450Z,10.10
2022-08-31T12:54:25.373Z,13.00
2022-08-31T12:55:25.366Z,10.80
2022-08-31T12:56:25.379Z,10.00
2022-08-31T12:57:27.012Z,10.90
2022-08-31T12:58:25.340Z,8.10
2022-08-31T12:59:36.252Z,8.50
2022-08-31T13:00:26.363Z,8.70
2022-08-31T13:01:25.455Z,7.80
2022-08-31T13:02:25.482Z,5.60
2022-08-31T13:03:25.286Z,8.00
2022-08-31T13:04:25.318Z,7.40
2022-08-31T13:05:25.260Z,7.00
2022-08-31T13:06:25.254Z,8.50
2022-08-31T13:07:25.241Z,7.40
2022-08-31T13:08:25.230Z,6.80
2022-08-31T13:09:28.379Z,7.20
2022-08-31T13:10:25.208Z,6.50
2022-08-31T13:11:25.203Z,6.50
2022-08-31T13:12:25.971Z,7.20
2022-08-31T13:13:25.176Z,7.80
2022-08-31T13:14:25.194Z,7.30
2022-08-31T13:15:25.154Z,8.00
2022-08-31T13:16:25.340Z,7.60